Time;durP1;ratioP1;P1;durP2;ratioP2;P2;SDS_P1;SDS_P2;PMS_P1;PMS_P2;Temp;Humidity;BMP_temperature;BMP_pressure;BME280_temperature;BME280_humidity;BME280_pressure;Samples;Min_cycle;Max_cycle;Signal;HPM_P1;HPM_P2
2022/12/11 00:01:44;;;;;;;64.50;24.40;;;2.30;99.90;;;;;;4191374;28;20467;-63
2022/12/11 00:03:45;;;;;;;57.67;22.70;;;2.40;99.90;;;;;;4186396;28;20252;-63
2022/12/11 00:05:46;;;;;;;64.63;24.95;;;2.40;99.90;;;;;;4186099;28;20111;-63
2022/12/11 00:07:46;;;;;;;67.53;25.90;;;2.40;99.90;;;;;;4191640;28;20035;-63
2022/12/11 00:09:47;;;;;;;66.10;24.63;;;2.40;99.90;;;;;;4192504;28;20078;-63
2022/12/11 00:11:48;;;;;;;73.18;28.45;;;2.40;99.90;;;;;;4191927;28;20031;-63
2022/12/11 00:13:48;;;;;;;72.45;27.33;;;2.40;99.90;;;;;;4191361;28;20050;-63
2022/12/11 00:15:49;;;;;;;65.35;26.17;;;2.40;99.90;;;;;;4190843;28;20048;-63
2022/12/11 00:17:49;;;;;;;72.20;27.10;;;2.40;99.90;;;;;;4190700;28;20032;-64
2022/12/11 00:19:50;;;;;;;67.38;26.25;;;2.40;99.90;;;;;;4192746;28;20035;-63
2022/12/11 00:21:50;;;;;;;66.75;25.70;;;2.40;99.90;;;;;;4193969;28;20028;-63
2022/12/11 00:23:51;;;;;;;70.40;26.55;;;2.40;99.90;;;;;;4196157;28;20476;-63
2022/12/11 00:25:52;;;;;;;73.47;27.67;;;2.40;99.90;;;;;;4194345;28;20383;-63
2022/12/11 00:27:52;;;;;;;69.30;25.55;;;2.50;99.90;;;;;;4193596;28;20040;-63
2022/12/11 00:29:53;;;;;;;69.15;24.20;;;2.40;99.90;;;;;;4189180;28;20036;-63
2022/12/11 00:31:53;;;;;;;65.30;25.52;;;2.40;99.90;;;;;;4194949;28;21093;-63
2022/12/11 00:33:54;;;;;;;70.50;26.23;;;2.40;99.90;;;;;;4196061;28;20032;-63
2022/12/11 00:35:54;;;;;;;69.75;26.17;;;2.30;99.90;;;;;;4193713;28;20555;-63
2022/12/11 00:37:55;;;;;;;69.47;27.63;;;2.40;99.90;;;;;;4192982;28;20036;-63
2022/12/11 00:39:56;;;;;;;79.93;28.92;;;2.30;99.90;;;;;;4195818;28;20037;-63
2022/12/11 00:41:57;;;;;;;67.13;25.38;;;2.30;99.90;;;;;;4195035;28;20040;-63
2022/12/11 00:43:58;;;;;;;70.10;25.85;;;2.30;99.90;;;;;;4195168;28;20036;-63
2022/12/11 00:45:58;;;;;;;74.90;27.67;;;2.30;99.90;;;;;;4188841;28;20044;-63
2022/12/11 00:47:59;;;;;;;74.63;26.33;;;2.30;99.90;;;;;;4194276;28;20050;-63
2022/12/11 00:49:59;;;;;;;82.80;29.60;;;2.30;99.90;;;;;;4194648;28;20475;-64
2022/12/11 00:52:00;;;;;;;75.72;26.55;;;2.30;99.90;;;;;;4194642;28;20025;-63
2022/12/11 00:54:00;;;;;;;79.65;28.75;;;2.30;99.90;;;;;;4190904;28;20471;-63
2022/12/11 00:56:07;;;;;;;68.38;25.73;;;2.40;99.90;;;;;;4193647;28;20036;-63
2022/12/11 00:58:09;;;;;;;75.40;27.20;;;2.30;99.90;;;;;;4194659;28;20121;-63
2022/12/11 01:00:11;;;;;;;70.10;26.48;;;2.40;99.90;;;;;;4194384;28;20048;-67
2022/12/11 01:02:12;;;;;;;60.47;23.15;;;2.40;99.90;;;;;;4195685;28;20991;-63
2022/12/11 01:04:12;;;;;;;72.65;26.42;;;2.30;99.90;;;;;;4193341;28;20036;-63
2022/12/11 01:06:19;;;;;;;68.13;26.30;;;2.30;99.90;;;;;;4190190;28;20040;-63
2022/12/11 01:08:20;;;;;;;67.63;25.23;;;2.40;99.90;;;;;;4193467;28;20036;-63
2022/12/11 01:10:23;;;;;;;72.45;28.45;;;2.40;99.90;;;;;;4194425;28;20115;-63
2022/12/11 01:12:25;;;;;;;66.80;26.88;;;2.40;99.90;;;;;;4195102;28;20043;-63
2022/12/11 01:14:26;;;;;;;82.03;28.73;;;2.40;99.90;;;;;;4195458;28;20510;-63
2022/12/11 01:16:26;;;;;;;65.10;25.35;;;2.40;99.90;;;;;;4190283;28;20041;-63
2022/12/11 01:18:27;;;;;;;64.07;24.27;;;2.40;99.90;;;;;;4193251;28;20029;-63
2022/12/11 01:20:28;;;;;;;77.57;28.60;;;2.30;99.90;;;;;;4183190;28;20112;-63
2022/12/11 01:22:28;;;;;;;64.75;25.20;;;2.40;99.90;;;;;;4178647;28;20458;-63
2022/12/11 01:24:29;;;;;;;68.18;25.55;;;2.30;99.90;;;;;;4177164;28;20041;-63
2022/12/11 01:26:30;;;;;;;66.07;23.83;;;2.30;99.90;;;;;;4188384;28;20035;-65
2022/12/11 01:28:30;;;;;;;79.00;27.70;;;2.30;99.90;;;;;;4194380;28;20124;-64
2022/12/11 01:30:31;;;;;;;67.18;25.40;;;2.30;99.90;;;;;;4194231;28;20040;-63
2022/12/11 01:32:32;;;;;;;73.75;26.13;;;2.40;99.90;;;;;;4193217;28;20565;-63
2022/12/11 01:34:33;;;;;;;70.93;25.75;;;2.40;99.90;;;;;;4194700;28;20025;-63
2022/12/11 01:36:33;;;;;;;64.43;24.63;;;2.40;99.90;;;;;;4191487;28;20037;-63
2022/12/11 01:38:34;;;;;;;66.53;24.52;;;2.40;99.90;;;;;;4193667;28;20033;-63
2022/12/11 01:40:34;;;;;;;64.55;24.73;;;2.40;99.90;;;;;;4193544;28;20028;-63
2022/12/11 01:42:36;;;;;;;65.20;24.95;;;2.50;99.90;;;;;;4195004;28;20084;-63
2022/12/11 01:44:36;;;;;;;77.47;27.58;;;2.40;99.90;;;;;;4190664;28;20079;-63
2022/12/11 01:46:37;;;;;;;70.63;26.75;;;2.50;99.90;;;;;;4189505;28;20032;-63
2022/12/11 01:48:38;;;;;;;70.20;26.65;;;2.40;99.90;;;;;;4194392;28;20446;-63
2022/12/11 01:50:43;;;;;;;73.80;26.38;;;2.40;99.90;;;;;;4191682;28;20106;-63
2022/12/11 01:52:46;;;;;;;65.45;24.77;;;2.40;99.90;;;;;;4175806;28;20033;-63
2022/12/11 01:54:48;;;;;;;71.90;25.10;;;2.40;99.90;;;;;;4183800;28;20028;-63
2022/12/11 01:56:51;;;;;;;71.40;26.70;;;2.30;99.90;;;;;;4191401;28;20372;-63
2022/12/11 01:58:56;;;;;;;69.65;25.33;;;2.30;99.90;;;;;;4189978;28;20123;-63
2022/12/11 02:00:58;;;;;;;62.10;23.10;;;2.40;99.90;;;;;;4192658;28;20033;-63
2022/12/11 02:02:59;;;;;;;55.08;20.90;;;2.40;99.90;;;;;;4188161;28;20462;-63
2022/12/11 02:05:04;;;;;;;71.28;25.75;;;2.40;99.90;;;;;;4181768;28;20052;-63
2022/12/11 02:07:05;;;;;;;65.68;25.67;;;2.40;99.90;;;;;;4191762;28;20048;-63
2022/12/11 02:09:10;;;;;;;69.28;25.52;;;2.40;99.90;;;;;;4191771;28;20039;-63
2022/12/11 02:11:19;;;;;;;69.18;25.38;;;2.40;99.90;;;;;;4193350;28;20081;-63
2022/12/11 02:13:40;;;;;;;65.70;24.63;;;2.40;99.90;;;;;;4194033;28;20431;-63
2022/12/11 02:15:49;;;;;;;73.80;25.52;;;2.40;99.90;;;;;;4187573;28;20683;-63
2022/12/11 02:17:54;;;;;;;70.25;24.83;;;2.40;99.90;;;;;;4178327;28;20376;-63
2022/12/11 02:19:57;;;;;;;68.25;26.35;;;2.40;99.90;;;;;;4185530;28;20036;-63
2022/12/11 02:22:05;;;;;;;64.10;24.70;;;2.50;99.90;;;;;;4172535;28;20036;-63
2022/12/11 02:24:18;;;;;;;67.65;25.67;;;2.40;99.90;;;;;;4181097;28;20131;-63
2022/12/11 02:26:34;;;;;;;64.22;25.55;;;2.40;99.90;;;;;;4172702;28;20037;-63
2022/12/11 02:28:40;;;;;;;71.20;26.90;;;2.40;99.90;;;;;;4183293;28;20480;-63
2022/12/11 02:30:42;;;;;;;65.18;24.70;;;2.40;99.90;;;;;;4180284;28;20037;-63
2022/12/11 02:32:56;;;;;;;67.82;25.58;;;2.40;99.90;;;;;;4179241;28;20086;-63
2022/12/11 02:35:09;;;;;;;73.28;27.35;;;2.40;99.90;;;;;;4182833;28;20094;-63
2022/12/11 02:37:15;;;;;;;;;;;2.40;99.90;;;;;;4205460;28;20088;-63
2022/12/11 02:39:17;;;;;;;65.57;24.10;;;2.40;99.90;;;;;;4175581;28;19909;-65
2022/12/11 02:41:19;;;;;;;;;;;2.30;99.90;;;;;;4174991;28;20060;-63
2022/12/11 02:43:22;;;;;;;69.75;25.13;;;2.40;99.90;;;;;;4174274;28;19913;-63
2022/12/11 02:45:25;;;;;;;67.80;24.42;;;2.40;99.90;;;;;;4173346;28;20033;-63
2022/12/11 02:47:28;;;;;;;64.53;25.58;;;2.40;99.90;;;;;;4175504;28;20037;-63
2022/12/11 02:49:30;;;;;;;66.82;25.52;;;2.40;99.90;;;;;;4179342;28;20040;-63
2022/12/11 02:51:36;;;;;;;56.58;23.20;;;2.40;99.90;;;;;;4172573;28;20052;-64
2022/12/11 02:53:41;;;;;;;63.50;24.15;;;2.40;99.90;;;;;;4181069;28;20037;-63
2022/12/11 02:55:44;;;;;;;62.67;25.75;;;2.40;99.90;;;;;;4177495;28;20040;-63
2022/12/11 02:57:50;;;;;;;64.68;25.60;;;2.40;99.90;;;;;;4176064;28;20033;-63
2022/12/11 02:59:50;;;;;;;62.42;24.65;;;2.40;99.90;;;;;;4176841;28;20048;-63
2022/12/11 03:01:51;;;;;;;65.47;23.83;;;2.40;99.90;;;;;;4182515;28;20088;-63
2022/12/11 03:03:53;;;;;;;63.60;24.85;;;2.40;99.90;;;;;;4192218;28;20106;-63
2022/12/11 03:05:54;;;;;;;62.53;24.38;;;2.40;99.90;;;;;;4189449;28;20039;-63
2022/12/11 03:07:55;;;;;;;66.40;24.98;;;2.40;99.90;;;;;;4190634;28;20391;-63
2022/12/11 03:09:56;;;;;;;57.85;23.85;;;2.40;99.90;;;;;;4192093;28;20036;-63
2022/12/11 03:11:56;;;;;;;56.20;23.08;;;2.50;99.90;;;;;;4182922;28;20052;-63
2022/12/11 03:13:58;;;;;;;58.22;23.80;;;2.50;99.90;;;;;;4188021;28;20041;-63
2022/12/11 03:16:29;;;;;;;61.42;23.65;;;2.50;99.90;;;;;;4172311;28;20048;-63
2022/12/11 03:18:40;;;;;;;60.85;23.83;;;2.40;99.90;;;;;;4177035;28;20414;-63
2022/12/11 03:20:44;;;;;;;60.25;23.60;;;2.50;99.90;;;;;;4183620;28;20040;-63
2022/12/11 03:22:51;;;;;;;61.60;25.77;;;2.40;99.90;;;;;;4190156;28;20032;-63
2022/12/11 03:24:59;;;;;;;52.15;22.15;;;2.50;99.90;;;;;;4186815;28;24729;-63
2022/12/11 03:27:13;;;;;;;55.28;22.83;;;2.50;99.90;;;;;;4187867;28;20464;-63
2022/12/11 03:29:27;;;;;;;57.78;23.10;;;2.60;99.90;;;;;;4187091;28;20063;-63
2022/12/11 03:31:41;;;;;;;60.42;25.80;;;2.60;99.90;;;;;;4185279;28;20506;-63
2022/12/11 03:33:46;;;;;;;61.00;23.23;;;2.60;99.90;;;;;;4179122;28;20049;-63
2022/12/11 03:35:55;;;;;;;59.08;23.95;;;2.60;99.90;;;;;;4181215;28;20495;-63
2022/12/11 03:38:00;;;;;;;60.22;23.52;;;2.60;99.90;;;;;;4174239;28;20400;-63
2022/12/11 03:40:06;;;;;;;53.05;21.83;;;2.50;99.90;;;;;;4186263;28;20037;-63
2022/12/11 03:42:10;;;;;;;56.22;23.95;;;2.50;99.90;;;;;;4182391;28;20089;-63
2022/12/11 03:44:12;;;;;;;56.08;23.83;;;2.50;99.90;;;;;;4175155;28;20483;-63
2022/12/11 03:46:14;;;;;;;52.20;22.58;;;2.60;99.90;;;;;;4177792;28;20029;-63
2022/12/11 03:48:17;;;;;;;51.67;21.15;;;2.60;99.90;;;;;;4178457;28;20036;-63
2022/12/11 03:50:20;;;;;;;53.83;21.60;;;2.60;99.90;;;;;;4170005;28;20037;-63
2022/12/11 03:52:22;;;;;;;53.90;22.48;;;2.60;99.90;;;;;;4177792;28;20037;-63
2022/12/11 03:54:23;;;;;;;47.15;21.77;;;2.60;99.90;;;;;;4183643;28;20604;-63
2022/12/11 03:56:27;;;;;;;50.95;21.80;;;2.60;99.90;;;;;;4178810;28;20283;-64
2022/12/11 03:58:27;;;;;;;47.60;19.85;;;2.60;99.90;;;;;;4192203;28;20033;-63
2022/12/11 04:00:28;;;;;;;48.35;21.73;;;2.60;99.90;;;;;;4186332;28;20171;-63
2022/12/11 04:02:29;;;;;;;51.72;22.27;;;2.60;99.90;;;;;;4189766;28;20037;-63
2022/12/11 04:04:30;;;;;;;50.00;21.33;;;2.60;99.90;;;;;;4191562;28;20036;-63
2022/12/11 04:06:30;;;;;;;42.63;18.85;;;2.60;99.90;;;;;;4190621;28;20082;-63
2022/12/11 04:08:31;;;;;;;45.05;19.55;;;2.60;99.90;;;;;;4180400;28;20055;-63
2022/12/11 04:10:31;;;;;;;48.83;21.95;;;2.50;99.90;;;;;;4183197;28;20049;-63
2022/12/11 04:12:32;;;;;;;40.17;19.58;;;2.60;99.90;;;;;;4191423;28;20133;-63
2022/12/11 04:16:53;;;;;;;42.30;20.38;;;2.50;99.90;;;;;;4187385;28;20075;-63
2022/12/11 04:25:51;;;;;;;39.20;17.77;;;2.50;99.90;;;;;;4183615;28;20029;-63
2022/12/11 04:27:52;;;;;;;40.75;18.38;;;2.50;99.90;;;;;;4179313;28;20059;-63
2022/12/11 04:29:52;;;;;;;40.25;19.80;;;2.60;99.90;;;;;;4182372;28;20041;-63
2022/12/11 04:31:53;;;;;;;39.10;18.80;;;2.50;99.90;;;;;;4176865;28;20068;-63
2022/12/11 04:33:54;;;;;;;39.97;18.50;;;2.50;99.90;;;;;;4179201;28;20077;-63
2022/12/11 04:35:57;;;;;;;44.20;19.52;;;2.50;99.90;;;;;;4187692;28;20037;-63
2022/12/11 04:37:58;;;;;;;42.55;19.77;;;2.50;99.90;;;;;;4183300;28;20540;-64
2022/12/11 04:39:59;;;;;;;41.03;19.15;;;2.50;99.90;;;;;;4185427;28;20040;-63
2022/12/11 04:41:59;;;;;;;38.05;18.20;;;2.50;99.90;;;;;;4189344;28;20376;-64
2022/12/11 04:44:00;;;;;;;40.80;18.48;;;2.50;99.90;;;;;;4189631;28;20033;-64
2022/12/11 04:46:06;;;;;;;43.78;20.20;;;2.60;99.90;;;;;;4192110;28;20051;-64
2022/12/11 04:48:07;;;;;;;39.53;19.00;;;2.60;99.90;;;;;;4191114;28;20448;-63
2022/12/11 04:50:10;;;;;;;42.25;19.83;;;2.60;99.90;;;;;;4181914;28;20115;-64
2022/12/11 04:52:10;;;;;;;40.28;19.13;;;2.60;99.90;;;;;;4185765;28;20441;-63
2022/12/11 04:54:11;;;;;;;41.30;19.85;;;2.60;99.90;;;;;;4183810;28;20037;-64
2022/12/11 04:56:14;;;;;;;45.85;19.52;;;2.60;99.90;;;;;;4192077;28;20052;-64
2022/12/11 04:58:14;;;;;;;40.17;18.55;;;2.70;99.90;;;;;;4192269;28;20487;-63
2022/12/11 05:00:16;;;;;;;37.17;18.42;;;2.60;99.90;;;;;;4183796;28;20033;-64
2022/12/11 05:02:16;;;;;;;41.92;19.80;;;2.70;99.90;;;;;;4174781;28;20052;-63
2022/12/11 05:04:17;;;;;;;39.08;18.63;;;2.70;99.90;;;;;;4181710;28;20431;-63
2022/12/11 05:06:17;;;;;;;38.83;17.27;;;2.70;99.90;;;;;;4176814;28;20086;-63
2022/12/11 05:08:19;;;;;;;39.63;19.10;;;2.70;99.90;;;;;;4190496;28;20032;-63
2022/12/11 05:10:20;;;;;;;42.53;19.90;;;2.70;99.90;;;;;;4193819;28;20051;-63
2022/12/11 05:12:21;;;;;;;44.15;20.27;;;2.70;99.90;;;;;;4189693;28;20045;-64
2022/12/11 05:14:21;;;;;;;40.47;19.15;;;2.70;99.90;;;;;;4173140;28;20024;-63
2022/12/11 05:16:22;;;;;;;39.85;18.38;;;2.70;99.90;;;;;;4176247;28;20142;-63
2022/12/11 05:18:23;;;;;;;39.05;19.65;;;2.80;99.90;;;;;;4187044;28;20567;-63
2022/12/11 05:20:23;;;;;;;43.50;21.05;;;2.80;99.90;;;;;;4186983;28;20037;-63
2022/12/11 05:22:24;;;;;;;39.72;18.73;;;2.70;99.90;;;;;;4179730;28;20144;-63
2022/12/11 05:24:25;;;;;;;41.33;19.98;;;2.80;99.90;;;;;;4188319;28;20089;-64
2022/12/11 05:26:25;;;;;;;39.03;20.05;;;2.80;99.90;;;;;;4187514;28;20456;-63
2022/12/11 05:28:28;;;;;;;52.50;23.85;;;2.80;99.90;;;;;;4178612;28;20087;-65
2022/12/11 05:30:28;;;;;;;;;;;2.70;99.90;;;;;;4191083;28;20122;-64
2022/12/11 05:32:29;;;;;;;43.45;20.77;;;2.70;99.90;;;;;;4176928;28;20011;-64
2022/12/11 05:34:29;;;;;;;48.17;21.67;;;2.70;99.90;;;;;;4176812;28;20037;-63
2022/12/11 05:36:32;;;;;;;41.58;19.75;;;2.70;99.90;;;;;;4182882;28;20048;-64
2022/12/11 05:38:32;;;;;;;46.58;22.75;;;2.60;99.90;;;;;;4180535;28;20033;-63
2022/12/11 05:40:33;;;;;;;45.95;21.58;;;2.60;99.90;;;;;;4180452;28;20113;-63
2022/12/11 05:42:34;;;;;;;40.20;19.80;;;2.60;99.90;;;;;;4188937;28;20067;-65
2022/12/11 05:44:34;;;;;;;39.10;17.80;;;2.60;99.90;;;;;;4183803;28;20111;-64
2022/12/11 05:46:35;;;;;;;40.83;19.95;;;2.70;99.90;;;;;;4184539;28;20418;-63
2022/12/11 05:48:37;;;;;;;45.97;21.13;;;2.70;99.90;;;;;;4188970;28;20036;-64
2022/12/11 05:50:37;;;;;;;38.47;19.50;;;2.70;99.90;;;;;;4191354;28;20110;-63
2022/12/11 05:52:38;;;;;;;42.97;20.05;;;2.70;99.90;;;;;;4190922;28;20494;-63
2022/12/11 05:54:38;;;;;;;44.63;21.90;;;2.80;99.90;;;;;;4180385;28;20111;-63
2022/12/11 05:56:39;;;;;;;42.28;19.77;;;2.70;99.90;;;;;;4173876;28;20573;-63
2022/12/11 05:58:41;;;;;;;45.92;22.25;;;2.80;99.90;;;;;;4183725;28;20032;-63
2022/12/11 06:00:42;;;;;;;47.57;22.20;;;2.70;99.90;;;;;;4187618;28;20040;-63
2022/12/11 06:02:43;;;;;;;42.60;20.45;;;2.70;99.90;;;;;;4186462;28;20492;-63
2022/12/11 06:04:43;;;;;;;45.95;21.73;;;2.80;99.90;;;;;;4183526;28;20086;-63
2022/12/11 06:06:44;;;;;;;40.70;20.13;;;2.70;99.90;;;;;;4187377;28;20044;-63
2022/12/11 06:08:45;;;;;;;46.25;22.17;;;2.70;99.90;;;;;;4192262;28;20025;-63
2022/12/11 06:10:46;;;;;;;37.83;18.02;;;2.70;99.90;;;;;;4187313;28;20029;-63
2022/12/11 06:12:46;;;;;;;41.42;21.08;;;2.70;99.90;;;;;;4190945;28;20227;-63
2022/12/11 06:14:47;;;;;;;46.90;21.90;;;2.80;99.90;;;;;;4184033;28;20445;-63
2022/12/11 06:16:48;;;;;;;47.72;22.17;;;2.80;99.90;;;;;;4183437;28;20491;-63
2022/12/11 06:18:50;;;;;;;47.80;21.23;;;2.80;99.90;;;;;;4176458;28;20450;-63
2022/12/11 06:20:50;;;;;;;51.20;23.08;;;2.70;99.90;;;;;;4190256;28;20123;-63
2022/12/11 06:22:51;;;;;;;50.38;23.02;;;2.80;99.90;;;;;;4187634;28;20459;-63
2022/12/11 06:24:52;;;;;;;54.80;23.55;;;2.80;99.90;;;;;;4191212;28;20048;-63
2022/12/11 06:26:52;;;;;;;49.90;22.00;;;2.80;99.90;;;;;;4185995;28;20025;-64
2022/12/11 06:28:53;;;;;;;48.72;23.17;;;2.80;99.90;;;;;;4188198;28;20036;-63
2022/12/11 06:30:56;;;;;;;51.97;22.17;;;2.70;99.90;;;;;;4190710;28;20061;-64
2022/12/11 06:32:58;;;;;;;52.13;23.75;;;2.70;99.90;;;;;;4174574;28;20064;-64
2022/12/11 06:34:58;;;;;;;55.95;24.67;;;2.70;99.90;;;;;;4181594;28;20413;-64
2022/12/11 06:36:59;;;;;;;49.83;22.65;;;2.70;99.90;;;;;;4168842;28;20044;-63
2022/12/11 06:38:59;;;;;;;49.53;22.05;;;2.70;99.90;;;;;;4179433;28;20163;-63
2022/12/11 06:41:03;;;;;;;50.22;24.15;;;2.70;99.90;;;;;;4179742;28;20078;-63
2022/12/11 06:43:04;;;;;;;45.25;22.05;;;2.80;99.90;;;;;;4182129;28;20041;-63
2022/12/11 06:45:05;;;;;;;43.58;20.65;;;2.70;99.90;;;;;;4184877;28;20112;-64
2022/12/11 06:47:05;;;;;;;44.17;20.92;;;2.70;99.90;;;;;;4174044;28;20092;-64
2022/12/11 06:49:06;;;;;;;44.03;21.00;;;2.80;99.90;;;;;;4184348;28;20033;-63
2022/12/11 06:51:12;;;;;;;43.83;20.70;;;2.80;99.90;;;;;;4179452;28;20037;-64
2022/12/11 06:53:14;;;;;;;43.38;21.25;;;2.80;99.90;;;;;;4172668;28;20114;-63
2022/12/11 06:55:14;;;;;;;40.17;19.48;;;2.80;99.90;;;;;;4179577;28;20102;-63
2022/12/11 06:57:16;;;;;;;42.13;20.75;;;2.80;99.90;;;;;;4180824;28;20475;-63
2022/12/11 06:59:17;;;;;;;39.00;19.15;;;2.80;99.90;;;;;;4190607;28;20102;-63
2022/12/11 07:01:23;;;;;;;43.38;19.63;;;2.80;99.90;;;;;;4189743;28;20111;-63
2022/12/11 07:03:24;;;;;;;45.85;19.65;;;2.80;99.90;;;;;;4186573;28;20311;-63
2022/12/11 07:05:24;;;;;;;40.55;20.15;;;2.80;99.90;;;;;;4187167;28;20684;-63
2022/12/11 07:07:25;;;;;;;33.72;17.48;;;2.70;99.90;;;;;;4178892;28;20059;-63
2022/12/11 07:09:25;;;;;;;40.92;18.77;;;2.70;99.90;;;;;;4171260;28;20449;-63
2022/12/11 07:11:26;;;;;;;39.08;18.15;;;2.70;99.90;;;;;;4181281;28;20052;-63
2022/12/11 07:13:27;;;;;;;37.20;17.70;;;2.80;99.90;;;;;;4174276;28;20082;-63
2022/12/11 07:15:27;;;;;;;34.63;17.02;;;2.80;99.90;;;;;;4176380;28;20043;-63
2022/12/11 07:17:28;;;;;;;37.15;16.83;;;2.80;99.90;;;;;;4183347;28;20045;-63
2022/12/11 07:19:29;;;;;;;34.47;16.58;;;2.80;99.90;;;;;;4178586;28;20091;-63
2022/12/11 07:21:30;;;;;;;38.17;17.45;;;2.80;99.90;;;;;;4182904;28;20476;-63
2022/12/11 07:23:30;;;;;;;39.80;18.77;;;2.80;99.90;;;;;;4189566;28;20101;-64
2022/12/11 07:25:31;;;;;;;44.35;20.55;;;2.80;99.90;;;;;;4187932;28;20068;-64
2022/12/11 07:27:31;;;;;;;36.00;17.77;;;2.80;99.90;;;;;;4187658;28;20041;-65
2022/12/11 07:29:32;;;;;;;38.22;18.88;;;2.90;99.90;;;;;;4189852;28;20036;-65
2022/12/11 07:31:33;;;;;;;38.28;18.13;;;2.90;99.90;;;;;;4189576;28;20033;-65
2022/12/11 07:33:34;;;;;;;35.30;17.70;;;2.90;99.90;;;;;;4190376;28;20102;-65
2022/12/11 07:35:35;;;;;;;36.80;17.60;;;2.90;99.90;;;;;;4189652;28;20045;-65
2022/12/11 07:37:37;;;;;;;33.92;18.33;;;2.90;99.90;;;;;;4186635;28;20099;-65
2022/12/11 07:39:37;;;;;;;40.38;17.35;;;2.90;99.90;;;;;;4189098;28;20460;-65
2022/12/11 07:41:38;;;;;;;35.90;17.70;;;2.90;99.90;;;;;;4192250;28;20060;-65
2022/12/11 07:43:40;;;;;;;39.08;18.27;;;2.90;99.90;;;;;;4189234;28;20087;-65
2022/12/11 07:45:41;;;;;;;35.53;18.30;;;2.80;99.90;;;;;;4176712;28;20052;-65
2022/12/11 07:47:41;;;;;;;34.58;17.00;;;2.90;99.90;;;;;;4177608;28;20128;-65
2022/12/11 07:49:42;;;;;;;35.13;17.27;;;2.90;99.90;;;;;;4177471;28;20106;-65
2022/12/11 07:51:42;;;;;;;39.10;18.00;;;2.90;99.90;;;;;;4175296;28;20029;-65
2022/12/11 07:53:45;;;;;;;38.78;18.45;;;2.80;99.90;;;;;;4179757;28;20492;-65
2022/12/11 07:55:46;;;;;;;36.67;18.25;;;2.90;99.90;;;;;;4171286;28;20037;-65
2022/12/11 07:57:46;;;;;;;35.17;17.45;;;2.80;99.90;;;;;;4188362;28;20044;-65
2022/12/11 07:59:47;;;;;;;33.70;16.13;;;2.80;99.90;;;;;;4191942;28;20033;-64
2022/12/11 08:01:47;;;;;;;33.78;16.25;;;2.90;99.90;;;;;;4181022;28;20048;-65
2022/12/11 08:03:49;;;;;;;34.80;16.60;;;2.90;99.90;;;;;;4181260;28;20262;-65
2022/12/11 08:05:51;;;;;;;41.53;19.67;;;2.90;99.90;;;;;;4170290;28;20494;-64
2022/12/11 08:07:52;;;;;;;36.22;17.60;;;2.90;99.90;;;;;;4176704;28;20757;-64
2022/12/11 08:09:52;;;;;;;34.75;17.35;;;2.90;99.90;;;;;;4177427;28;20045;-64
2022/12/11 08:11:53;;;;;;;37.63;17.55;;;2.90;99.90;;;;;;4183319;28;20076;-64
2022/12/11 08:13:54;;;;;;;33.50;16.30;;;2.90;99.90;;;;;;4177460;28;20458;-64
2022/12/11 08:15:54;;;;;;;38.25;17.98;;;2.90;99.90;;;;;;4186933;28;20029;-64
2022/12/11 08:17:55;;;;;;;35.78;17.25;;;2.90;99.90;;;;;;4183398;28;20044;-64
2022/12/11 08:19:55;;;;;;;32.55;16.33;;;2.90;99.90;;;;;;4182757;28;20047;-65
2022/12/11 08:21:56;;;;;;;33.67;17.15;;;2.90;99.90;;;;;;4182748;28;20103;-65
2022/12/11 08:23:57;;;;;;;36.53;17.52;;;2.90;99.90;;;;;;4188929;28;20067;-65
2022/12/11 08:25:57;;;;;;;32.97;16.20;;;2.90;99.90;;;;;;4186485;28;20120;-65
2022/12/11 08:27:58;;;;;;;34.10;16.77;;;2.90;99.90;;;;;;4173747;28;20057;-65
2022/12/11 08:29:58;;;;;;;31.83;16.55;;;2.90;99.90;;;;;;4192294;28;20120;-65
2022/12/11 08:31:59;;;;;;;31.77;16.30;;;3.00;99.90;;;;;;4189795;28;20469;-65
2022/12/11 08:34:00;;;;;;;31.58;15.93;;;3.00;99.90;;;;;;4191266;28;20380;-65
2022/12/11 08:36:09;;;;;;;32.63;15.98;;;3.00;99.90;;;;;;4181617;28;20068;-65
2022/12/11 08:38:10;;;;;;;29.38;14.82;;;3.00;99.90;;;;;;4171500;28;20086;-65
2022/12/11 08:40:11;;;;;;;31.23;15.23;;;3.00;99.90;;;;;;4173609;28;20399;-66
2022/12/11 08:42:11;;;;;;;32.20;15.80;;;3.00;99.90;;;;;;4174903;28;20029;-65
2022/12/11 08:44:12;;;;;;;29.05;14.23;;;3.00;99.90;;;;;;4177681;28;20179;-65
2022/12/11 08:46:13;;;;;;;28.48;15.00;;;3.00;99.90;;;;;;4173902;28;20128;-65
2022/12/11 08:48:14;;;;;;;30.40;14.38;;;3.00;99.90;;;;;;4176363;28;20033;-65
2022/12/11 08:50:15;;;;;;;30.02;13.57;;;3.00;99.90;;;;;;4172499;28;20388;-65
2022/12/11 08:52:15;;;;;;;29.00;13.90;;;2.90;99.90;;;;;;4175480;28;20184;-65
2022/12/11 08:54:16;;;;;;;26.77;13.45;;;2.90;99.90;;;;;;4177427;28;20068;-65
2022/12/11 08:56:19;;;;;;;28.08;13.75;;;2.90;99.90;;;;;;4173218;28;20076;-65
2022/12/11 08:58:19;;;;;;;26.90;13.35;;;2.90;99.90;;;;;;4177040;28;20028;-65
2022/12/11 09:00:20;;;;;;;24.90;13.20;;;2.90;99.90;;;;;;4190711;28;20044;-65
2022/12/11 09:02:20;;;;;;;25.98;13.07;;;2.90;99.90;;;;;;4186957;28;20380;-65
2022/12/11 09:04:22;;;;;;;25.50;13.48;;;3.00;99.90;;;;;;4181693;28;20095;-65
2022/12/11 09:06:26;;;;;;;22.38;11.73;;;3.00;99.90;;;;;;4183072;28;20072;-65
2022/12/11 09:08:27;;;;;;;25.42;12.95;;;3.00;99.90;;;;;;4189517;28;20064;-65
2022/12/11 09:10:27;;;;;;;24.90;13.43;;;3.00;99.90;;;;;;4190266;28;20032;-65
2022/12/11 09:12:28;;;;;;;26.75;13.57;;;3.10;99.90;;;;;;4192453;28;20501;-65
2022/12/11 09:14:28;;;;;;;26.42;14.65;;;3.00;99.90;;;;;;4192504;28;20047;-65
2022/12/11 09:16:30;;;;;;;27.70;13.57;;;3.00;99.90;;;;;;4184623;28;20040;-65
2022/12/11 09:18:31;;;;;;;24.33;12.80;;;3.00;99.90;;;;;;4188448;28;20075;-65
2022/12/11 09:20:32;;;;;;;24.98;12.85;;;3.00;99.90;;;;;;4190589;28;20393;-65
2022/12/11 09:22:32;;;;;;;24.73;12.82;;;3.00;99.90;;;;;;4189165;28;20043;-65
2022/12/11 09:24:33;;;;;;;24.08;13.65;;;3.00;99.90;;;;;;4193618;28;20060;-66
2022/12/11 09:26:34;;;;;;;22.35;12.20;;;3.00;99.90;;;;;;4189652;28;20035;-66
2022/12/11 09:28:34;;;;;;;21.48;11.43;;;3.00;99.90;;;;;;4189796;28;20102;-65
2022/12/11 09:30:35;;;;;;;18.85;10.77;;;3.00;99.90;;;;;;4190887;28;20104;-65
2022/12/11 09:32:35;;;;;;;21.13;10.98;;;3.00;99.90;;;;;;4190908;28;20476;-65
2022/12/11 09:34:36;;;;;;;22.80;12.02;;;2.90;99.90;;;;;;4178786;28;20029;-65
2022/12/11 09:36:38;;;;;;;19.70;11.45;;;2.90;99.90;;;;;;4178049;28;20124;-65
2022/12/11 09:38:39;;;;;;;19.50;10.35;;;2.90;99.90;;;;;;4185498;28;20037;-66
2022/12/11 09:40:42;;;;;;;19.50;10.98;;;2.90;99.90;;;;;;4190754;28;20067;-65
2022/12/11 09:43:13;;;;;;;20.98;11.55;;;2.90;99.90;;;;;;4189781;28;20353;-65
2022/12/11 09:45:15;;;;;;;22.33;11.80;;;2.90;99.90;;;;;;4179006;28;20032;-66
2022/12/11 09:47:22;;;;;;;24.60;12.70;;;2.90;99.90;;;;;;4190289;28;20037;-65
2022/12/11 09:49:37;;;;;;;23.17;12.70;;;2.90;99.90;;;;;;4192954;28;20123;-65
2022/12/11 09:51:43;;;;;;;20.27;11.43;;;2.90;99.90;;;;;;4192792;28;20029;-65
2022/12/11 09:53:44;;;;;;;19.85;10.32;;;2.80;99.90;;;;;;4195911;28;20058;-65
2022/12/11 09:55:45;;;;;;;25.63;12.30;;;2.80;99.90;;;;;;4192885;28;20052;-65
2022/12/11 09:58:05;;;;;;;19.38;11.25;;;2.80;99.90;;;;;;4189523;28;20471;-65
2022/12/11 10:00:27;;;;;;;20.35;10.85;;;2.80;99.90;;;;;;4187826;28;20032;-66
2022/12/11 10:03:03;;;;;;;19.80;10.80;;;2.80;99.90;;;;;;4179651;28;20120;-65
2022/12/11 10:05:29;;;;;;;18.48;10.00;;;2.80;99.90;;;;;;4193312;28;20700;-66
2022/12/11 10:07:59;;;;;;;19.48;10.27;;;2.90;99.90;;;;;;4180689;28;20130;-65
2022/12/11 10:10:19;;;;;;;24.20;11.88;;;3.00;99.90;;;;;;4173427;28;20107;-65
2022/12/11 10:12:30;;;;;;;19.95;10.32;;;3.00;99.90;;;;;;4189896;28;20036;-65
2022/12/11 10:14:58;;;;;;;17.23;9.30;;;3.00;99.90;;;;;;4189792;28;20068;-65
2022/12/11 10:17:09;;;;;;;20.88;10.65;;;3.00;99.90;;;;;;4182892;28;20048;-65
2022/12/11 10:19:28;;;;;;;18.92;10.20;;;3.10;99.90;;;;;;4179818;28;20430;-65
2022/12/11 10:21:38;;;;;;;19.38;10.82;;;3.10;99.90;;;;;;4191279;28;20090;-64
2022/12/11 10:23:53;;;;;;;21.38;9.70;;;3.10;99.90;;;;;;4193023;28;20032;-65
2022/12/11 10:26:01;;;;;;;21.30;11.05;;;3.10;99.90;;;;;;4192243;28;20086;-64
2022/12/11 10:28:22;;;;;;;19.90;10.13;;;3.00;99.90;;;;;;4194127;28;20032;-65
2022/12/11 10:30:33;;;;;;;22.20;9.68;;;3.00;99.90;;;;;;4187665;28;20036;-64
2022/12/11 10:33:01;;;;;;;22.27;10.10;;;3.10;99.90;;;;;;4192151;28;20056;-65
2022/12/11 10:35:05;;;;;;;24.05;11.82;;;3.10;99.90;;;;;;4193662;28;20040;-65
2022/12/11 10:37:05;;;;;;;20.95;11.20;;;3.10;99.90;;;;;;4192448;28;20036;-64
2022/12/11 10:39:18;;;;;;;18.83;10.55;;;3.00;99.90;;;;;;4192710;28;20472;-64
2022/12/11 10:41:23;;;;;;;23.02;11.70;;;3.10;99.90;;;;;;4191726;28;20475;-65
2022/12/11 10:43:42;;;;;;;18.45;9.55;;;3.00;99.90;;;;;;4191514;28;20036;-64